sensor_id;sensor_type;location;lat;lon;timestamp;pressure;altitude;pressure_sealevel;temperature;humidity
18784;BME280;9520;50.954;6.968;2023-05-07T00:00:20;101027.44;;;22.63;51.82
18784;BME280;9520;50.954;6.968;2023-05-07T00:00:42;101028.31;;;22.64;52.02
18784;BME280;9520;50.954;6.968;2023-05-07T00:01:05;101034.53;;;22.64;51.91
18784;BME280;9520;50.954;6.968;2023-05-07T00:01:27;101040.75;;;22.65;51.88
18784;BME280;9520;50.954;6.968;2023-05-07T00:01:48;101030.00;;;22.65;52.06
18784;BME280;9520;50.954;6.968;2023-05-07T00:02:10;101026.38;;;22.66;51.60
18784;BME280;9520;50.954;6.968;2023-05-07T00:02:32;101029.84;;;22.68;51.88
18784;BME280;9520;50.954;6.968;2023-05-07T00:02:54;101023.69;;;22.66;51.94
18784;BME280;9520;50.954;6.968;2023-05-07T00:03:16;101035.22;;;22.68;51.86
18784;BME280;9520;50.954;6.968;2023-05-07T00:03:38;101031.66;;;22.67;52.17
18784;BME280;9520;50.954;6.968;2023-05-07T00:04:00;101026.38;;;22.66;51.97
18784;BME280;9520;50.954;6.968;2023-05-07T00:04:23;101035.22;;;22.68;52.16
18784;BME280;9520;50.954;6.968;2023-05-07T00:04:45;101035.22;;;22.68;52.16
18784;BME280;9520;50.954;6.968;2023-05-07T00:05:07;101035.31;;;22.66;52.38
18784;BME280;9520;50.954;6.968;2023-05-07T00:05:30;101032.53;;;22.68;52.16
18784;BME280;9520;50.954;6.968;2023-05-07T00:05:52;101032.53;;;22.68;51.54
18784;BME280;9520;50.954;6.968;2023-05-07T00:06:15;101037.03;;;22.67;51.64
18784;BME280;9520;50.954;6.968;2023-05-07T00:06:37;101034.44;;;22.66;51.82
18784;BME280;9520;50.954;6.968;2023-05-07T00:06:58;101033.47;;;22.67;51.63
18784;BME280;9520;50.954;6.968;2023-05-07T00:07:20;101029.06;;;22.66;51.85
18784;BME280;9520;50.954;6.968;2023-05-07T00:07:43;101028.31;;;22.64;51.85
18784;BME280;9520;50.954;6.968;2023-05-07T00:08:04;101033.47;;;22.67;52.24
18784;BME280;9520;50.954;6.968;2023-05-07T00:08:26;101030.00;;;22.65;52.46
18784;BME280;9520;50.954;6.968;2023-05-07T00:08:50;101032.69;;;22.65;52.44
18784;BME280;9520;50.954;6.968;2023-05-07T00:09:11;101029.16;;;22.64;52.40
18784;BME280;9520;50.954;6.968;2023-05-07T00:09:34;101034.44;;;22.66;52.20
18784;BME280;9520;50.954;6.968;2023-05-07T00:09:56;101030.00;;;22.65;52.28
18784;BME280;9520;50.954;6.968;2023-05-07T00:10:18;101028.19;;;22.65;52.44
18784;BME280;9520;50.954;6.968;2023-05-07T00:10:40;101029.06;;;22.66;52.25
18784;BME280;9520;50.954;6.968;2023-05-07T00:11:02;101029.94;;;22.66;52.59
18784;BME280;9520;50.954;6.968;2023-05-07T00:11:25;101033.47;;;22.67;52.35
18784;BME280;9520;50.954;6.968;2023-05-07T00:11:47;101030.00;;;22.65;52.09
18784;BME280;9520;50.954;6.968;2023-05-07T00:12:09;101032.63;;;22.66;52.41
18784;BME280;9520;50.954;6.968;2023-05-07T00:12:30;101025.41;;;22.67;52.20
18784;BME280;9520;50.954;6.968;2023-05-07T00:12:55;101027.22;;;22.66;52.34
18784;BME280;9520;50.954;6.968;2023-05-07T00:13:16;101033.47;;;22.67;52.40
18784;BME280;9520;50.954;6.968;2023-05-07T00:13:38;101020.91;;;22.67;52.41
18784;BME280;9520;50.954;6.968;2023-05-07T00:14:00;101031.75;;;22.66;52.07
18784;BME280;9520;50.954;6.968;2023-05-07T00:14:22;101017.53;;;22.64;52.56
18784;BME280;9520;50.954;6.968;2023-05-07T00:14:44;101024.63;;;22.65;52.52
18784;BME280;9520;50.954;6.968;2023-05-07T00:15:07;101015.97;;;22.60;52.36
18784;BME280;9520;50.954;6.968;2023-05-07T00:15:30;101022.91;;;22.64;52.57
18784;BME280;9520;50.954;6.968;2023-05-07T00:15:51;101033.69;;;22.64;52.52
18784;BME280;9520;50.954;6.968;2023-05-07T00:16:14;101024.81;;;22.62;52.73
18784;BME280;9520;50.954;6.968;2023-05-07T00:16:36;101029.25;;;22.63;52.44
18784;BME280;9520;50.954;6.968;2023-05-07T00:16:58;101019.44;;;22.62;52.45
18784;BME280;9520;50.954;6.968;2023-05-07T00:17:19;101025.78;;;22.61;52.45
18784;BME280;9520;50.954;6.968;2023-05-07T00:17:42;101029.34;;;22.61;52.34
18784;BME280;9520;50.954;6.968;2023-05-07T00:18:04;101026.63;;;22.61;52.31
18784;BME280;9520;50.954;6.968;2023-05-07T00:18:25;101031.06;;;22.62;52.09
18784;BME280;9520;50.954;6.968;2023-05-07T00:18:47;101031.94;;;22.63;52.04
18784;BME280;9520;50.954;6.968;2023-05-07T00:19:09;101028.47;;;22.61;52.48
18784;BME280;9520;50.954;6.968;2023-05-07T00:19:31;101026.72;;;22.60;52.45
18784;BME280;9520;50.954;6.968;2023-05-07T00:19:53;101032.09;;;22.60;52.48
18784;BME280;9520;50.954;6.968;2023-05-07T00:20:15;101026.63;;;22.61;52.59
18784;BME280;9520;50.954;6.968;2023-05-07T00:20:36;101018.66;;;22.60;52.40
18784;BME280;9520;50.954;6.968;2023-05-07T00:20:58;101031.16;;;22.61;52.34
18784;BME280;9520;50.954;6.968;2023-05-07T00:21:21;101029.34;;;22.61;52.46
18784;BME280;9520;50.954;6.968;2023-05-07T00:21:42;101024.03;;;22.60;52.18
18784;BME280;9520;50.954;6.968;2023-05-07T00:22:04;101030.41;;;22.59;52.52
18784;BME280;9520;50.954;6.968;2023-05-07T00:22:26;101020.88;;;22.53;52.45
18784;BME280;9520;50.954;6.968;2023-05-07T00:22:47;101027.59;;;22.60;52.55
18784;BME280;9520;50.954;6.968;2023-05-07T00:23:10;101039.22;;;22.61;52.22
18784;BME280;9520;50.954;6.968;2023-05-07T00:23:32;101024.03;;;22.60;52.29
18784;BME280;9520;50.954;6.968;2023-05-07T00:23:55;101033.84;;;22.61;52.18
18784;BME280;9520;50.954;6.968;2023-05-07T00:24:16;101027.59;;;22.60;52.29
18784;BME280;9520;50.954;6.968;2023-05-07T00:24:38;101036.53;;;22.61;52.49
18784;BME280;9520;50.954;6.968;2023-05-07T00:25:01;101033.09;;;22.59;52.64
18784;BME280;9520;50.954;6.968;2023-05-07T00:25:22;101030.41;;;22.59;52.51
18784;BME280;9520;50.954;6.968;2023-05-07T00:25:44;101033.09;;;22.59;52.51
18784;BME280;9520;50.954;6.968;2023-05-07T00:26:06;101033.16;;;22.57;52.49
18784;BME280;9520;50.954;6.968;2023-05-07T00:26:27;101030.41;;;22.59;52.64
18784;BME280;9520;50.954;6.968;2023-05-07T00:26:50;101034.13;;;22.56;52.71
18784;BME280;9520;50.954;6.968;2023-05-07T00:27:12;101032.38;;;22.55;52.82
18784;BME280;9520;50.954;6.968;2023-05-07T00:27:33;101029.81;;;22.54;52.05
18784;BME280;9520;50.954;6.968;2023-05-07T00:27:55;101034.13;;;22.56;52.68
18784;BME280;9520;50.954;6.968;2023-05-07T00:28:18;101028.75;;;22.56;52.68
18784;BME280;9520;50.954;6.968;2023-05-07T00:28:40;101032.28;;;22.57;52.65
18784;BME280;9520;50.954;6.968;2023-05-07T00:29:02;101033.25;;;22.56;52.15
18784;BME280;9520;50.954;6.968;2023-05-07T00:29:24;101029.69;;;22.55;52.02
18784;BME280;9520;50.954;6.968;2023-05-07T00:29:45;101022.50;;;22.56;52.27
18784;BME280;9520;50.954;6.968;2023-05-07T00:30:09;101035.94;;;22.56;52.75
18784;BME280;9520;50.954;6.968;2023-05-07T00:30:31;101031.44;;;22.56;52.57
18784;BME280;9520;50.954;6.968;2023-05-07T00:30:53;101031.44;;;22.56;52.52
18784;BME280;9520;50.954;6.968;2023-05-07T00:31:14;101030.47;;;22.57;52.15
18784;BME280;9520;50.954;6.968;2023-05-07T00:31:36;101014.91;;;22.48;51.93
18784;BME280;9520;50.954;6.968;2023-05-07T00:31:59;101032.38;;;22.55;52.25
18784;BME280;9520;50.954;6.968;2023-05-07T00:32:21;101039.41;;;22.58;52.14
18784;BME280;9520;50.954;6.968;2023-05-07T00:33:26;101025.19;;;22.56;52.49
18784;BME280;9520;50.954;6.968;2023-05-07T00:33:49;101035.00;;;22.57;52.27
18784;BME280;9520;50.954;6.968;2023-05-07T00:34:11;101030.69;;;22.54;52.46
18784;BME280;9520;50.954;6.968;2023-05-07T00:34:32;101002.88;;;22.39;52.71
18784;BME280;9520;50.954;6.968;2023-05-07T00:34:54;101030.69;;;22.54;52.47
18784;BME280;9520;50.954;6.968;2023-05-07T00:35:16;101032.50;;;22.54;52.66
18784;BME280;9520;50.954;6.968;2023-05-07T00:35:41;101029.81;;;22.54;52.12
18784;BME280;9520;50.954;6.968;2023-05-07T00:36:04;101029.00;;;22.52;52.24
18784;BME280;9520;50.954;6.968;2023-05-07T00:36:25;101033.53;;;22.51;51.85
18784;BME280;9520;50.954;6.968;2023-05-07T00:36:47;101022.00;;;22.49;52.26
18784;BME280;9520;50.954;6.968;2023-05-07T00:37:09;101003.97;;;22.35;52.21
18784;BME280;9520;50.954;6.968;2023-05-07T00:37:33;101025.66;;;22.48;52.60
18784;BME280;9520;50.954;6.968;2023-05-07T00:37:54;101026.69;;;22.46;52.92
18784;BME280;9520;50.954;6.968;2023-05-07T00:38:16;101025.81;;;22.45;53.03
18784;BME280;9520;50.954;6.968;2023-05-07T00:38:38;101024.84;;;22.46;52.80
18784;BME280;9520;50.954;6.968;2023-05-07T00:39:01;101029.22;;;22.49;52.62
18784;BME280;9520;50.954;6.968;2023-05-07T00:39:24;101032.84;;;22.48;52.61
18784;BME280;9520;50.954;6.968;2023-05-07T00:39:46;101027.47;;;22.48;52.76
18784;BME280;9520;50.954;6.968;2023-05-07T00:40:08;101021.22;;;22.47;52.47
18784;BME280;9520;50.954;6.968;2023-05-07T00:40:31;101027.47;;;22.48;52.64
18784;BME280;9520;50.954;6.968;2023-05-07T00:40:54;101030.06;;;22.49;52.80
18784;BME280;9520;50.954;6.968;2023-05-07T00:41:15;101022.09;;;22.48;52.61
18784;BME280;9520;50.954;6.968;2023-05-07T00:41:37;101029.22;;;22.49;52.90
18784;BME280;9520;50.954;6.968;2023-05-07T00:42:00;101023.81;;;22.49;52.79
18784;BME280;9520;50.954;6.968;2023-05-07T00:42:23;101022.09;;;22.48;52.57
18784;BME280;9520;50.954;6.968;2023-05-07T00:42:45;101022.97;;;22.48;52.13
18784;BME280;9520;50.954;6.968;2023-05-07T00:43:08;101018.34;;;22.50;52.29
18784;BME280;9520;50.954;6.968;2023-05-07T00:43:30;101020.19;;;22.50;52.52
18784;BME280;9520;50.954;6.968;2023-05-07T00:43:53;101022.88;;;22.50;52.54
18784;BME280;9520;50.954;6.968;2023-05-07T00:44:15;101019.41;;;22.48;52.85
18784;BME280;9520;50.954;6.968;2023-05-07T00:44:36;101023.81;;;22.49;52.77
18784;BME280;9520;50.954;6.968;2023-05-07T00:44:58;101022.97;;;22.48;52.62
18784;BME280;9520;50.954;6.968;2023-05-07T00:45:20;101026.59;;;22.47;52.33
18784;BME280;9520;50.954;6.968;2023-05-07T00:45:43;101015.84;;;22.47;52.32
18784;BME280;9520;50.954;6.968;2023-05-07T00:46:04;101022.97;;;22.48;52.49
18784;BME280;9520;50.954;6.968;2023-05-07T00:46:26;101021.56;;;22.41;52.47
18784;BME280;9520;50.954;6.968;2023-05-07T00:46:48;101021.41;;;22.44;52.48
18784;BME280;9520;50.954;6.968;2023-05-07T00:47:11;101019.47;;;22.46;52.46
18784;BME280;9520;50.954;6.968;2023-05-07T00:47:34;101020.34;;;22.47;52.59
18784;BME280;9520;50.954;6.968;2023-05-07T00:47:57;101015.84;;;22.47;52.53
18784;BME280;9520;50.954;6.968;2023-05-07T00:48:20;101020.34;;;22.47;52.53
18784;BME280;9520;50.954;6.968;2023-05-07T00:48:41;101028.34;;;22.48;52.36
18784;BME280;9520;50.954;6.968;2023-05-07T00:49:04;101030.94;;;22.50;52.21
18784;BME280;9520;50.954;6.968;2023-05-07T00:49:33;101021.56;;;22.41;52.21
18784;BME280;9520;50.954;6.968;2023-05-07T00:49:57;101017.00;;;22.43;52.00
18784;BME280;9520;50.954;6.968;2023-05-07T00:50:20;101021.41;;;22.44;52.36
18784;BME280;9520;50.954;6.968;2023-05-07T00:50:41;101020.38;;;22.31;52.51
18784;BME280;9520;50.954;6.968;2023-05-07T00:51:04;101021.84;;;22.36;52.22
18784;BME280;9520;50.954;6.968;2023-05-07T00:51:26;101013.78;;;22.36;52.38
18784;BME280;9520;50.954;6.968;2023-05-07T00:51:49;101014.66;;;22.37;52.54
18784;BME280;9520;50.954;6.968;2023-05-07T00:52:14;101019.06;;;22.38;52.28
18784;BME280;9520;50.954;6.968;2023-05-07T00:52:38;101017.41;;;22.35;52.23
18784;BME280;9520;50.954;6.968;2023-05-07T00:53:00;101017.34;;;22.37;52.05
18784;BME280;9520;50.954;6.968;2023-05-07T00:53:22;101014.84;;;22.34;52.03
18784;BME280;9520;50.954;6.968;2023-05-07T00:53:44;101019.16;;;22.36;52.04
18784;BME280;9520;50.954;6.968;2023-05-07T00:54:08;101011.97;;;22.37;51.99
18784;BME280;9520;50.954;6.968;2023-05-07T00:54:30;101017.25;;;22.38;52.00
18784;BME280;9520;50.954;6.968;2023-05-07T00:54:52;101015.53;;;22.37;52.25
18784;BME280;9520;50.954;6.968;2023-05-07T00:55:14;101004.25;;;22.31;51.99
18784;BME280;9520;50.954;6.968;2023-05-07T00:55:36;101024.38;;;22.39;51.64
18784;BME280;9520;50.954;6.968;2023-05-07T00:56:00;101013.63;;;22.39;52.25
18784;BME280;9520;50.954;6.968;2023-05-07T00:56:22;101011.88;;;22.38;51.95
18784;BME280;9520;50.954;6.968;2023-05-07T00:56:45;101012.84;;;22.37;52.01
18784;BME280;9520;50.954;6.968;2023-05-07T00:57:07;101014.56;;;22.38;52.17
18784;BME280;9520;50.954;6.968;2023-05-07T00:57:32;101019.94;;;22.38;52.19
18784;BME280;9520;50.954;6.968;2023-05-07T00:57:56;101012.63;;;22.40;52.05
18784;BME280;9520;50.954;6.968;2023-05-07T00:58:17;101020.69;;;22.40;52.21
18784;BME280;9520;50.954;6.968;2023-05-07T00:58:40;101015.31;;;22.40;52.29
18784;BME280;9520;50.954;6.968;2023-05-07T00:59:02;101013.50;;;22.41;51.92
18784;BME280;9520;50.954;6.968;2023-05-07T00:59:24;101012.63;;;22.40;51.65
18784;BME280;9520;50.954;6.968;2023-05-07T00:59:47;101014.38;;;22.42;51.83
18784;BME280;9520;50.954;6.968;2023-05-07T01:00:10;101006.50;;;22.38;51.66
18784;BME280;9520;50.954;6.968;2023-05-07T01:00:34;101022.38;;;22.43;51.83
18784;BME280;9520;50.954;6.968;2023-05-07T01:00:57;101018.81;;;22.43;52.32
18784;BME280;9520;50.954;6.968;2023-05-07T01:01:20;101010.81;;;22.41;52.12
18784;BME280;9520;50.954;6.968;2023-05-07T01:01:42;101014.47;;;22.40;51.46
18784;BME280;9520;50.954;6.968;2023-05-07T01:02:04;101002.00;;;22.39;51.47
18784;BME280;9520;50.954;6.968;2023-05-07T01:02:26;101015.53;;;22.37;51.49
18784;BME280;9520;50.954;6.968;2023-05-07T01:02:48;101003.81;;;22.38;51.31
18784;BME280;9520;50.954;6.968;2023-05-07T01:03:11;101008.47;;;22.35;51.62
18784;BME280;9520;50.954;6.968;2023-05-07T01:03:33;101014.91;;;22.32;51.90
18784;BME280;9520;50.954;6.968;2023-05-07T01:03:55;101003.09;;;22.35;51.91
18784;BME280;9520;50.954;6.968;2023-05-07T01:04:18;101011.09;;;22.36;51.76
18784;BME280;9520;50.954;6.968;2023-05-07T01:04:40;101014.66;;;22.37;51.82
18784;BME280;9520;50.954;6.968;2023-05-07T01:05:05;101003.97;;;22.35;51.50
18784;BME280;9520;50.954;6.968;2023-05-07T01:05:29;100994.38;;;22.31;51.61
18784;BME280;9520;50.954;6.968;2023-05-07T01:05:52;101003.97;;;22.35;51.91
18784;BME280;9520;50.954;6.968;2023-05-07T01:06:15;101013.78;;;22.36;51.71
18784;BME280;9520;50.954;6.968;2023-05-07T01:06:40;101005.72;;;22.36;51.92
18784;BME280;9520;50.954;6.968;2023-05-07T01:07:02;101010.16;;;22.37;51.94
18784;BME280;9520;50.954;6.968;2023-05-07T01:07:25;101002.16;;;22.36;51.86
18784;BME280;9520;50.954;6.968;2023-05-07T01:07:47;101001.28;;;22.35;51.75
18784;BME280;9520;50.954;6.968;2023-05-07T01:08:12;101007.81;;;22.31;51.85
18784;BME280;9520;50.954;6.968;2023-05-07T01:08:35;101009.91;;;22.26;52.09
18784;BME280;9520;50.954;6.968;2023-05-07T01:08:56;101008.06;;;22.27;51.75
18784;BME280;9520;50.954;6.968;2023-05-07T01:09:20;101006.06;;;22.30;51.27
18784;BME280;9520;50.954;6.968;2023-05-07T01:09:43;101001.56;;;22.31;51.55
18784;BME280;9520;50.954;6.968;2023-05-07T01:10:06;101004.16;;;22.32;51.80
18784;BME280;9520;50.954;6.968;2023-05-07T01:10:29;101011.19;;;22.35;51.57
18784;BME280;9520;50.954;6.968;2023-05-07T01:10:52;101009.47;;;22.34;51.63
18784;BME280;9520;50.954;6.968;2023-05-07T01:11:15;101008.59;;;22.33;51.48
18784;BME280;9520;50.954;6.968;2023-05-07T01:11:38;101003.09;;;22.35;51.15
18784;BME280;9520;50.954;6.968;2023-05-07T01:12:00;100978.88;;;22.21;50.98
18784;BME280;9520;50.954;6.968;2023-05-07T01:12:23;101006.84;;;22.32;51.16
18784;BME280;9520;50.954;6.968;2023-05-07T01:12:47;101003.22;;;22.33;51.40
18784;BME280;9520;50.954;6.968;2023-05-07T01:13:12;101007.66;;;22.34;51.70
18784;BME280;9520;50.954;6.968;2023-05-07T01:13:35;101005.72;;;22.36;51.65
18784;BME280;9520;50.954;6.968;2023-05-07T01:13:59;100987.38;;;22.29;51.50
18784;BME280;9520;50.954;6.968;2023-05-07T01:14:21;101004.78;;;22.37;51.63
18784;BME280;9520;50.954;6.968;2023-05-07T01:14:43;101007.53;;;22.36;51.63
18784;BME280;9520;50.954;6.968;2023-05-07T01:15:06;101004.78;;;22.37;51.54
18784;BME280;9520;50.954;6.968;2023-05-07T01:15:30;101010.16;;;22.37;51.51
18784;BME280;9520;50.954;6.968;2023-05-07T01:15:51;100998.53;;;22.37;51.42
18784;BME280;9520;50.954;6.968;2023-05-07T01:16:13;101004.69;;;22.39;51.22
18784;BME280;9520;50.954;6.968;2023-05-07T01:16:36;101004.69;;;22.39;51.33
18784;BME280;9520;50.954;6.968;2023-05-07T01:16:59;101008.25;;;22.39;51.48
18784;BME280;9520;50.954;6.968;2023-05-07T01:17:21;101001.03;;;22.40;51.47
18784;BME280;9520;50.954;6.968;2023-05-07T01:17:43;101005.56;;;22.39;51.39
18784;BME280;9520;50.954;6.968;2023-05-07T01:18:17;101000.25;;;22.38;51.57
18784;BME280;9520;50.954;6.968;2023-05-07T01:18:40;101002.94;;;22.38;51.26
18784;BME280;9520;50.954;6.968;2023-05-07T01:19:02;101002.88;;;22.39;51.35
18784;BME280;9520;50.954;6.968;2023-05-07T01:19:24;101002.88;;;22.39;51.45
18784;BME280;9520;50.954;6.968;2023-05-07T01:19:46;101000.25;;;22.38;51.41
18784;BME280;9520;50.954;6.968;2023-05-07T01:20:10;101002.06;;;22.37;51.55
18784;BME280;9520;50.954;6.968;2023-05-07T01:20:34;100995.84;;;22.37;51.32
18784;BME280;9520;50.954;6.968;2023-05-07T01:20:56;101006.50;;;22.38;51.14
18784;BME280;9520;50.954;6.968;2023-05-07T01:21:24;100998.44;;;22.38;51.26
18784;BME280;9520;50.954;6.968;2023-05-07T01:21:51;100995.91;;;22.35;51.32
18784;BME280;9520;50.954;6.968;2023-05-07T01:22:17;100997.94;;;22.32;51.49
18784;BME280;9520;50.954;6.968;2023-05-07T01:22:45;100998.78;;;22.32;51.66
18784;BME280;9520;50.954;6.968;2023-05-07T01:23:08;100993.63;;;22.29;51.84
18784;BME280;9520;50.954;6.968;2023-05-07T01:23:33;100997.72;;;22.35;51.62
18784;BME280;9520;50.954;6.968;2023-05-07T01:23:57;100990.53;;;22.35;50.94
18784;BME280;9520;50.954;6.968;2023-05-07T01:24:19;101003.03;;;22.36;50.98
18784;BME280;9520;50.954;6.968;2023-05-07T01:24:41;100999.41;;;22.37;51.22
18784;BME280;9520;50.954;6.968;2023-05-07T01:25:04;100999.41;;;22.37;51.23
18784;BME280;9520;50.954;6.968;2023-05-07T01:25:27;101000.34;;;22.36;51.65
18784;BME280;9520;50.954;6.968;2023-05-07T01:25:52;100989.94;;;22.30;51.33
18784;BME280;9520;50.954;6.968;2023-05-07T01:26:15;100998.59;;;22.35;51.66
18784;BME280;9520;50.954;6.968;2023-05-07T01:26:40;101003.03;;;22.36;51.32
18784;BME280;9520;50.954;6.968;2023-05-07T01:27:02;101001.28;;;22.35;51.63
18784;BME280;9520;50.954;6.968;2023-05-07T01:27:27;100998.72;;;22.34;51.73
18784;BME280;9520;50.954;6.968;2023-05-07T01:27:49;100998.78;;;22.32;51.54
18784;BME280;9520;50.954;6.968;2023-05-07T01:28:11;101004.97;;;22.34;51.44
18784;BME280;9520;50.954;6.968;2023-05-07T01:28:35;100999.59;;;22.34;51.15
18784;BME280;9520;50.954;6.968;2023-05-07T01:28:58;100993.16;;;22.37;51.15
18784;BME280;9520;50.954;6.968;2023-05-07T01:29:19;100998.53;;;22.37;51.35
18784;BME280;9520;50.954;6.968;2023-05-07T01:29:41;100994.97;;;22.36;51.21
18784;BME280;9520;50.954;6.968;2023-05-07T01:30:04;100992.28;;;22.36;51.29
18784;BME280;9520;50.954;6.968;2023-05-07T01:30:26;100997.56;;;22.38;51.14
18784;BME280;9520;50.954;6.968;2023-05-07T01:30:52;100988.84;;;22.34;51.34
18784;BME280;9520;50.954;6.968;2023-05-07T01:31:15;100992.19;;;22.38;51.14
18784;BME280;9520;50.954;6.968;2023-05-07T01:31:38;100998.44;;;22.38;51.18
18784;BME280;9520;50.954;6.968;2023-05-07T01:32:02;100994.00;;;22.37;51.24
18784;BME280;9520;50.954;6.968;2023-05-07T01:32:29;100996.63;;;22.39;51.15
18784;BME280;9520;50.954;6.968;2023-05-07T01:32:57;100994.00;;;22.37;51.33
18784;BME280;9520;50.954;6.968;2023-05-07T01:33:21;100998.44;;;22.38;51.23
18784;BME280;9520;50.954;6.968;2023-05-07T01:33:44;100988.72;;;22.36;51.35
18784;BME280;9520;50.954;6.968;2023-05-07T01:34:09;100995.75;;;22.38;51.16
18784;BME280;9520;50.954;6.968;2023-05-07T01:34:32;100981.88;;;22.30;51.18
18784;BME280;9520;50.954;6.968;2023-05-07T01:34:57;100993.16;;;22.37;51.01
18784;BME280;9520;50.954;6.968;2023-05-07T01:35:24;100998.44;;;22.38;50.71
18784;BME280;9520;50.954;6.968;2023-05-07T01:35:48;101001.28;;;22.35;50.91
18784;BME280;9520;50.954;6.968;2023-05-07T01:36:11;100998.53;;;22.37;50.64
18784;BME280;9520;50.954;6.968;2023-05-07T01:36:35;100997.66;;;22.36;50.64
18784;BME280;9520;50.954;6.968;2023-05-07T01:36:59;100991.31;;;22.37;50.74
18784;BME280;9520;50.954;6.968;2023-05-07T01:37:22;100995.75;;;22.38;50.41
18784;BME280;9520;50.954;6.968;2023-05-07T01:37:46;100989.59;;;22.36;50.23
18784;BME280;9520;50.954;6.968;2023-05-07T01:38:08;100996.63;;;22.39;50.59
18784;BME280;9520;50.954;6.968;2023-05-07T01:38:30;101002.94;;;22.38;50.66
18784;BME280;9520;50.954;6.968;2023-05-07T01:38:52;100998.44;;;22.38;50.91
18784;BME280;9520;50.954;6.968;2023-05-07T01:39:16;100998.44;;;22.38;50.83
18784;BME280;9520;50.954;6.968;2023-05-07T01:39:39;100999.31;;;22.39;50.53
18784;BME280;9520;50.954;6.968;2023-05-07T01:40:01;100997.50;;;22.39;50.59
18784;BME280;9520;50.954;6.968;2023-05-07T01:40:24;100996.63;;;22.39;50.70
18784;BME280;9520;50.954;6.968;2023-05-07T01:40:48;100996.63;;;22.39;50.84
18784;BME280;9520;50.954;6.968;2023-05-07T01:41:10;100994.81;;;22.39;50.94
18784;BME280;9520;50.954;6.968;2023-05-07T01:41:33;100994.69;;;22.41;50.74
18784;BME280;9520;50.954;6.968;2023-05-07T01:41:55;100975.91;;;22.25;50.36
18784;BME280;9520;50.954;6.968;2023-05-07T01:42:18;100989.78;;;22.33;50.36
18784;BME280;9520;50.954;6.968;2023-05-07T01:42:42;100997.50;;;22.39;50.15
18784;BME280;9520;50.954;6.968;2023-05-07T01:43:05;100996.63;;;22.39;50.15
18784;BME280;9520;50.954;6.968;2023-05-07T01:43:28;100995.75;;;22.38;50.27
18784;BME280;9520;50.954;6.968;2023-05-07T01:43:52;100990.72;;;22.32;50.57
18784;BME280;9520;50.954;6.968;2023-05-07T01:44:15;100987.09;;;22.33;50.69
18784;BME280;9520;50.954;6.968;2023-05-07T01:44:38;100994.22;;;22.34;50.43
18784;BME280;9520;50.954;6.968;2023-05-07T01:44:59;100990.72;;;22.32;50.54
18784;BME280;9520;50.954;6.968;2023-05-07T01:45:21;100989.59;;;22.36;50.55
18784;BME280;9520;50.954;6.968;2023-05-07T01:45:44;101002.16;;;22.36;50.58
18784;BME280;9520;50.954;6.968;2023-05-07T01:46:07;100995.84;;;22.37;50.84
18784;BME280;9520;50.954;6.968;2023-05-07T01:46:31;100996.03;;;22.34;50.79
18784;BME280;9520;50.954;6.968;2023-05-07T01:46:54;100997.66;;;22.36;50.29
18784;BME280;9520;50.954;6.968;2023-05-07T01:47:17;100995.91;;;22.35;50.15
18784;BME280;9520;50.954;6.968;2023-05-07T01:47:39;100991.53;;;22.34;50.12
18784;BME280;9520;50.954;6.968;2023-05-07T01:48:02;100999.47;;;22.36;50.46
18784;BME280;9520;50.954;6.968;2023-05-07T01:48:24;100995.03;;;22.35;50.40
18784;BME280;9520;50.954;6.968;2023-05-07T01:48:48;100984.22;;;22.36;50.15
18784;BME280;9520;50.954;6.968;2023-05-07T01:49:11;100998.53;;;22.37;50.25
18784;BME280;9520;50.954;6.968;2023-05-07T01:49:33;100992.28;;;22.36;50.27
18784;BME280;9520;50.954;6.968;2023-05-07T01:49:55;100987.78;;;22.37;50.45
18784;BME280;9520;50.954;6.968;2023-05-07T01:50:19;100984.22;;;22.36;50.37
18784;BME280;9520;50.954;6.968;2023-05-07T01:50:41;100996.63;;;22.39;50.08
18784;BME280;9520;50.954;6.968;2023-05-07T01:51:04;100975.56;;;22.31;49.89
18784;BME280;9520;50.954;6.968;2023-05-07T01:51:26;100990.38;;;22.38;50.38
18784;BME280;9520;50.954;6.968;2023-05-07T01:51:50;100995.75;;;22.38;50.37
18784;BME280;9520;50.954;6.968;2023-05-07T01:52:12;100994.00;;;22.37;50.66
18784;BME280;9520;50.954;6.968;2023-05-07T01:52:34;100992.28;;;22.36;50.32
18784;BME280;9520;50.954;6.968;2023-05-07T01:52:58;100993.06;;;22.38;50.56
18784;BME280;9520;50.954;6.968;2023-05-07T01:53:19;100994.00;;;22.37;50.22
18784;BME280;9520;50.954;6.968;2023-05-07T01:53:42;100975.28;;;22.36;50.57
18784;BME280;9520;50.954;6.968;2023-05-07T01:54:05;100983.25;;;22.37;50.95
18784;BME280;9520;50.954;6.968;2023-05-07T01:54:27;100983.25;;;22.37;51.07
18784;BME280;9520;50.954;6.968;2023-05-07T01:54:50;100984.47;;;22.32;51.38
18784;BME280;9520;50.954;6.968;2023-05-07T01:55:13;100989.66;;;22.35;50.91
18784;BME280;9520;50.954;6.968;2023-05-07T01:55:35;100993.06;;;22.38;51.09
18784;BME280;9520;50.954;6.968;2023-05-07T01:55:58;100980.56;;;22.37;50.94
18784;BME280;9520;50.954;6.968;2023-05-07T01:56:19;100989.59;;;22.36;50.51
18784;BME280;9520;50.954;6.968;2023-05-07T01:56:42;100986.75;;;22.39;50.46
18784;BME280;9520;50.954;6.968;2023-05-07T01:57:05;100987.69;;;22.38;50.28
18784;BME280;9520;50.954;6.968;2023-05-07T01:57:27;100985.94;;;22.37;50.56
18784;BME280;9520;50.954;6.968;2023-05-07T01:57:49;100985.75;;;22.40;50.76
18784;BME280;9520;50.954;6.968;2023-05-07T01:58:11;100985.88;;;22.39;51.01
18784;BME280;9520;50.954;6.968;2023-05-07T01:58:32;100997.50;;;22.39;50.93
18784;BME280;9520;50.954;6.968;2023-05-07T01:58:56;100986.75;;;22.39;50.72
18784;BME280;9520;50.954;6.968;2023-05-07T01:59:18;100987.78;;;22.37;50.85
18784;BME280;9520;50.954;6.968;2023-05-07T01:59:39;100985.94;;;22.37;50.80
18784;BME280;9520;50.954;6.968;2023-05-07T02:00:01;100991.31;;;22.37;50.75
18784;BME280;9520;50.954;6.968;2023-05-07T02:00:36;100991.25;;;22.39;50.96
18784;BME280;9520;50.954;6.968;2023-05-07T02:00:59;100988.44;;;22.40;50.63
18784;BME280;9520;50.954;6.968;2023-05-07T02:01:21;100987.69;;;22.38;50.74